Terminal Aerodrome Forecast
Issued by NWS Mt. Holly, NJ

Home | Current Version | Previous Version | Text Only | Print | Product List | Glossary On
Versions: 1 2 3 4 5 6 7 8 9 10 11 12 13 14 15 16 17 18 19 20 21 22 23 24 25 26
195
FTUS41 KPHI 260525
TAFPHL
TAF
KPHL 260525Z 2606/2712 07010KT P6SM SCT020 OVC060
     FM260800 07012KT 6SM -DZ BR OVC020
     FM261200 07012KT 5SM -DZ BR OVC010
     FM262200 08010KT 4SM BR OVC008
     FM270400 09008KT 3SM BR OVC012=

USA.gov is the U.S. government's official web portal to all federal, state and local government web resources and services.